sensor_id;sensor_type;location;lat;lon;timestamp;pressure;altitude;pressure_sealevel;temperature;humidity
9281;BME280;4679;47.966;7.958;2023-03-23T07:06:43;96603.22;;;14.95;52.40
9281;BME280;4679;47.966;7.958;2023-03-23T07:08:45;96610.16;;;14.96;52.64
9281;BME280;4679;47.966;7.958;2023-03-23T07:10:47;96626.19;;;14.96;52.19
9281;BME280;4679;47.966;7.958;2023-03-23T07:12:52;96621.13;;;14.94;52.87
9281;BME280;4679;47.966;7.958;2023-03-23T07:14:54;96622.44;;;14.97;52.44
9281;BME280;4679;47.966;7.958;2023-03-23T07:16:55;96598.03;;;15.03;52.19
9281;BME280;4679;47.966;7.958;2023-03-23T07:18:57;96607.13;;;15.02;52.70
9281;BME280;4679;47.966;7.958;2023-03-23T07:20:59;96600.25;;;14.96;52.91
9281;BME280;4679;47.966;7.958;2023-03-23T07:23:03;96586.09;;;14.96;52.78
9281;BME280;4679;47.966;7.958;2023-03-23T07:25:06;96597.88;;;14.95;52.69
9281;BME280;4679;47.966;7.958;2023-03-23T07:27:08;96603.53;;;14.88;52.97
9281;BME280;4679;47.966;7.958;2023-03-23T07:29:10;96602.47;;;14.89;52.89
9281;BME280;4679;47.966;7.958;2023-03-23T07:31:12;96596.78;;;14.96;52.75
9281;BME280;4679;47.966;7.958;2023-03-23T07:33:14;96616.06;;;14.93;53.17
9281;BME280;4679;47.966;7.958;2023-03-23T07:35:16;96622.47;;;14.92;52.73
9281;BME280;4679;47.966;7.958;2023-03-23T07:37:17;96629.16;;;14.89;52.79
9281;BME280;4679;47.966;7.958;2023-03-23T07:39:20;96628.13;;;14.85;53.69
9281;BME280;4679;47.966;7.958;2023-03-23T07:41:24;96632.16;;;14.83;53.70
9281;BME280;4679;47.966;7.958;2023-03-23T07:43:25;96638.66;;;14.76;53.87
9281;BME280;4679;47.966;7.958;2023-03-23T07:45:28;96634.13;;;14.72;53.85
9281;BME280;4679;47.966;7.958;2023-03-23T07:47:30;96635.84;;;14.63;54.39
9281;BME280;4679;47.966;7.958;2023-03-23T07:49:32;96639.97;;;14.50;54.34
9281;BME280;4679;47.966;7.958;2023-03-23T07:51:34;96647.72;;;14.47;54.98
9281;BME280;4679;47.966;7.958;2023-03-23T07:53:38;96656.56;;;14.37;55.07
9281;BME280;4679;47.966;7.958;2023-03-23T07:55:42;96649.16;;;14.29;55.67
9281;BME280;4679;47.966;7.958;2023-03-23T07:57:44;96654.06;;;14.17;56.04
9281;BME280;4679;47.966;7.958;2023-03-23T07:59:45;96651.22;;;14.03;56.25
9281;BME280;4679;47.966;7.958;2023-03-23T08:01:47;96651.25;;;13.93;56.46
9281;BME280;4679;47.966;7.958;2023-03-23T08:03:49;96666.00;;;13.85;56.92
9281;BME280;4679;47.966;7.958;2023-03-23T08:05:51;96664.94;;;13.76;57.42
9281;BME280;4679;47.966;7.958;2023-03-23T08:07:54;96664.75;;;13.62;57.66
9281;BME280;4679;47.966;7.958;2023-03-23T08:09:55;96669.34;;;13.57;58.31
9281;BME280;4679;47.966;7.958;2023-03-23T08:11:58;96683.69;;;13.61;58.46
9281;BME280;4679;47.966;7.958;2023-03-23T08:14:00;96684.75;;;13.60;58.61
9281;BME280;4679;47.966;7.958;2023-03-23T08:16:03;96693.88;;;13.49;59.06
9281;BME280;4679;47.966;7.958;2023-03-23T08:18:05;96690.69;;;13.47;59.36
9281;BME280;4679;47.966;7.958;2023-03-23T08:20:08;96700.56;;;13.41;59.69
9281;BME280;4679;47.966;7.958;2023-03-23T08:22:13;96702.97;;;13.37;59.97
9281;BME280;4679;47.966;7.958;2023-03-23T08:24:15;96701.91;;;13.38;60.04
9281;BME280;4679;47.966;7.958;2023-03-23T08:26:17;96694.19;;;13.32;60.27
9281;BME280;4679;47.966;7.958;2023-03-23T08:28:20;96700.09;;;13.29;60.59
9281;BME280;4679;47.966;7.958;2023-03-23T08:30:22;96675.31;;;13.23;60.70
9281;BME280;4679;47.966;7.958;2023-03-23T08:32:24;96685.16;;;13.28;60.72
9281;BME280;4679;47.966;7.958;2023-03-23T08:34:26;96682.78;;;13.26;61.24
9281;BME280;4679;47.966;7.958;2023-03-23T08:36:29;96683.84;;;13.25;60.93
9281;BME280;4679;47.966;7.958;2023-03-23T08:38:31;96681.69;;;13.27;61.35
9281;BME280;4679;47.966;7.958;2023-03-23T08:40:32;96685.16;;;13.28;61.70
9281;BME280;4679;47.966;7.958;2023-03-23T08:42:34;96681.16;;;13.25;62.08
9281;BME280;4679;47.966;7.958;2023-03-23T08:44:37;96683.78;;;13.30;62.11
9281;BME280;4679;47.966;7.958;2023-03-23T08:46:39;96679.53;;;13.34;62.12
9281;BME280;4679;47.966;7.958;2023-03-23T08:48:41;96677.13;;;13.33;62.64
9281;BME280;4679;47.966;7.958;2023-03-23T08:50:44;96678.78;;;13.29;62.93
9281;BME280;4679;47.966;7.958;2023-03-23T08:52:46;96682.72;;;13.31;63.18
9281;BME280;4679;47.966;7.958;2023-03-23T08:54:47;96681.13;;;13.30;63.41
9281;BME280;4679;47.966;7.958;2023-03-23T08:56:49;96687.31;;;13.21;64.22
9281;BME280;4679;47.966;7.958;2023-03-23T08:58:51;96684.09;;;13.14;64.14
9281;BME280;4679;47.966;7.958;2023-03-23T09:00:54;96680.38;;;13.10;64.75
9281;BME280;4679;47.966;7.958;2023-03-23T09:02:56;96678.78;;;13.14;65.08
9281;BME280;4679;47.966;7.958;2023-03-23T09:04:58;96694.50;;;13.10;65.49
9281;BME280;4679;47.966;7.958;2023-03-23T09:06:59;96693.97;;;13.08;65.70
9281;BME280;4679;47.966;7.958;2023-03-23T09:09:02;96695.53;;;13.14;65.85
9281;BME280;4679;47.966;7.958;2023-03-23T09:11:09;96697.69;;;13.22;65.90
9281;BME280;4679;47.966;7.958;2023-03-23T09:13:11;96701.44;;;13.16;65.98
9281;BME280;4679;47.966;7.958;2023-03-23T09:15:15;96704.88;;;13.17;66.45
9281;BME280;4679;47.966;7.958;2023-03-23T09:17:18;96695.81;;;13.28;66.54
9281;BME280;4679;47.966;7.958;2023-03-23T09:19:20;96702.19;;;13.37;66.34
9281;BME280;4679;47.966;7.958;2023-03-23T09:21:22;96708.03;;;13.44;66.53
9281;BME280;4679;47.966;7.958;2023-03-23T09:23:24;96718.91;;;13.53;66.99
9281;BME280;4679;47.966;7.958;2023-03-23T09:25:27;96702.66;;;13.59;66.94
9281;BME280;4679;47.966;7.958;2023-03-23T09:27:29;96697.03;;;13.61;66.76
9281;BME280;4679;47.966;7.958;2023-03-23T09:29:30;96694.34;;;13.61;67.21
9281;BME280;4679;47.966;7.958;2023-03-23T09:31:32;96703.94;;;13.67;67.20
9281;BME280;4679;47.966;7.958;2023-03-23T09:33:38;96696.44;;;13.74;67.10
9281;BME280;4679;47.966;7.958;2023-03-23T09:35:41;96696.13;;;13.81;67.38
9281;BME280;4679;47.966;7.958;2023-03-23T09:37:44;96696.94;;;13.86;67.53
9281;BME280;4679;47.966;7.958;2023-03-23T09:39:47;96689.94;;;13.95;67.85
9281;BME280;4679;47.966;7.958;2023-03-23T09:42:02;96688.28;;;14.04;67.33
9281;BME280;4679;47.966;7.958;2023-03-23T09:44:15;96675.44;;;14.06;67.77
9281;BME280;4679;47.966;7.958;2023-03-23T09:46:28;96680.84;;;14.01;67.95
9281;BME280;4679;47.966;7.958;2023-03-23T09:48:41;96682.16;;;14.04;67.75
9281;BME280;4679;47.966;7.958;2023-03-23T09:50:48;96679.69;;;14.13;68.11
9281;BME280;4679;47.966;7.958;2023-03-23T09:52:55;96689.50;;;14.22;67.87
9281;BME280;4679;47.966;7.958;2023-03-23T09:54:58;96697.22;;;14.24;68.31
9281;BME280;4679;47.966;7.958;2023-03-23T09:57:01;96687.06;;;14.31;68.18
9281;BME280;4679;47.966;7.958;2023-03-23T09:59:12;96693.13;;;14.36;68.45
9281;BME280;4679;47.966;7.958;2023-03-23T10:01:19;96684.91;;;14.33;68.41
9281;BME280;4679;47.966;7.958;2023-03-23T10:03:26;96687.31;;;14.34;68.45
9281;BME280;4679;47.966;7.958;2023-03-23T10:05:32;96685.13;;;14.36;68.47
9281;BME280;4679;47.966;7.958;2023-03-23T10:07:34;96675.25;;;14.37;68.61
9281;BME280;4679;47.966;7.958;2023-03-23T10:09:36;96682.19;;;14.38;68.54
9281;BME280;4679;47.966;7.958;2023-03-23T10:11:47;96688.03;;;14.45;68.51
9281;BME280;4679;47.966;7.958;2023-03-23T10:14:02;96674.88;;;14.54;68.35
9281;BME280;4679;47.966;7.958;2023-03-23T10:16:10;96685.50;;;14.64;68.45
9281;BME280;4679;47.966;7.958;2023-03-23T10:18:16;96683.00;;;14.72;67.95
9281;BME280;4679;47.966;7.958;2023-03-23T10:20:26;96695.47;;;14.82;68.24
9281;BME280;4679;47.966;7.958;2023-03-23T10:22:32;96686.88;;;14.90;67.84
9281;BME280;4679;47.966;7.958;2023-03-23T10:24:43;96684.94;;;14.96;67.91
9281;BME280;4679;47.966;7.958;2023-03-23T10:26:53;96691.81;;;15.02;67.48
9281;BME280;4679;47.966;7.958;2023-03-23T10:28:59;96692.34;;;15.04;67.86
9281;BME280;4679;47.966;7.958;2023-03-23T10:31:03;96681.34;;;15.10;67.76
9281;BME280;4679;47.966;7.958;2023-03-23T10:33:13;96684.69;;;15.21;67.30
9281;BME280;4679;47.966;7.958;2023-03-23T10:35:20;96678.44;;;15.31;66.54
9281;BME280;4679;47.966;7.958;2023-03-23T10:37:27;96683.09;;;15.44;66.32
9281;BME280;4679;47.966;7.958;2023-03-23T10:39:41;96682.75;;;15.56;66.04
9281;BME280;4679;47.966;7.958;2023-03-23T10:41:45;96670.81;;;15.67;65.81
9281;BME280;4679;47.966;7.958;2023-03-23T10:43:47;96680.53;;;15.81;64.74
9281;BME280;4679;47.966;7.958;2023-03-23T10:45:56;96678.88;;;16.04;64.70
9281;BME280;4679;47.966;7.958;2023-03-23T10:48:04;96674.84;;;16.26;64.30
9281;BME280;4679;47.966;7.958;2023-03-23T10:50:13;96672.16;;;16.44;63.83
9281;BME280;4679;47.966;7.958;2023-03-23T10:52:29;96661.25;;;16.54;62.92
9281;BME280;4679;47.966;7.958;2023-03-23T10:54:37;96663.03;;;16.64;62.78
9281;BME280;4679;47.966;7.958;2023-03-23T10:56:41;96668.84;;;16.66;62.60
9281;BME280;4679;47.966;7.958;2023-03-23T10:58:42;96674.44;;;16.70;62.75
9281;BME280;4679;47.966;7.958;2023-03-23T11:00:46;96662.06;;;16.74;62.63
9281;BME280;4679;47.966;7.958;2023-03-23T11:02:58;96675.75;;;16.72;62.39
9281;BME280;4679;47.966;7.958;2023-03-23T11:05:02;96672.97;;;16.77;62.01
9281;BME280;4679;47.966;7.958;2023-03-23T11:07:05;96668.31;;;16.83;61.29
9281;BME280;4679;47.966;7.958;2023-03-23T11:09:15;96668.16;;;16.93;61.00
9281;BME280;4679;47.966;7.958;2023-03-23T11:11:21;96656.53;;;16.98;60.98
9281;BME280;4679;47.966;7.958;2023-03-23T11:13:30;96666.38;;;17.02;60.50
9281;BME280;4679;47.966;7.958;2023-03-23T11:15:35;96673.94;;;17.14;60.65
9281;BME280;4679;47.966;7.958;2023-03-23T11:17:37;96662.25;;;17.23;60.05
9281;BME280;4679;47.966;7.958;2023-03-23T11:19:40;96668.09;;;17.39;59.59
9281;BME280;4679;47.966;7.958;2023-03-23T11:21:45;96664.72;;;17.61;58.83
9281;BME280;4679;47.966;7.958;2023-03-23T11:23:51;96665.53;;;17.75;58.27
9281;BME280;4679;47.966;7.958;2023-03-23T11:25:58;96660.41;;;17.87;57.97
9281;BME280;4679;47.966;7.958;2023-03-23T11:28:02;96654.63;;;18.08;57.33
9281;BME280;4679;47.966;7.958;2023-03-23T11:30:09;96666.59;;;18.24;56.98
9281;BME280;4679;47.966;7.958;2023-03-23T11:32:14;96671.78;;;18.20;56.91
9281;BME280;4679;47.966;7.958;2023-03-23T11:34:18;96665.47;;;18.03;57.10
9281;BME280;4679;47.966;7.958;2023-03-23T11:36:27;96661.81;;;17.99;56.86
9281;BME280;4679;47.966;7.958;2023-03-23T11:38:30;96663.91;;;18.02;56.90
9281;BME280;4679;47.966;7.958;2023-03-23T11:40:32;96669.28;;;18.02;56.47
9281;BME280;4679;47.966;7.958;2023-03-23T11:42:38;96670.66;;;17.99;56.32
9281;BME280;4679;47.966;7.958;2023-03-23T11:44:44;96668.66;;;18.05;56.10
9281;BME280;4679;47.966;7.958;2023-03-23T11:46:53;96663.72;;;18.20;55.68
9281;BME280;4679;47.966;7.958;2023-03-23T11:48:59;96668.09;;;18.52;54.87
9281;BME280;4679;47.966;7.958;2023-03-23T11:51:05;96670.31;;;18.73;54.55
9281;BME280;4679;47.966;7.958;2023-03-23T11:53:15;96671.22;;;18.90;54.13
9281;BME280;4679;47.966;7.958;2023-03-23T11:55:22;96664.00;;;19.00;53.64
9281;BME280;4679;47.966;7.958;2023-03-23T11:57:25;96661.97;;;19.05;53.61
9281;BME280;4679;47.966;7.958;2023-03-23T11:59:31;96664.88;;;18.86;53.72
9281;BME280;4679;47.966;7.958;2023-03-23T12:01:46;96664.50;;;18.79;53.65
9281;BME280;4679;47.966;7.958;2023-03-23T12:04:25;96671.13;;;18.73;53.63
9281;BME280;4679;47.966;7.958;2023-03-23T12:06:36;96660.53;;;18.54;53.93
9281;BME280;4679;47.966;7.958;2023-03-23T12:08:53;96663.47;;;18.44;54.04
9281;BME280;4679;47.966;7.958;2023-03-23T12:11:05;96648.44;;;18.43;53.74
9281;BME280;4679;47.966;7.958;2023-03-23T12:13:26;96657.78;;;18.46;53.59
9281;BME280;4679;47.966;7.958;2023-03-23T12:15:38;96661.47;;;18.36;53.67
9281;BME280;4679;47.966;7.958;2023-03-23T12:17:50;96659.78;;;18.40;53.34
9281;BME280;4679;47.966;7.958;2023-03-23T12:20:13;96654.16;;;18.50;53.01
9281;BME280;4679;47.966;7.958;2023-03-23T12:22:28;96653.38;;;18.50;53.00
9281;BME280;4679;47.966;7.958;2023-03-23T12:24:46;96649.88;;;18.49;52.76
9281;BME280;4679;47.966;7.958;2023-03-23T12:26:55;96645.75;;;18.43;52.65
9281;BME280;4679;47.966;7.958;2023-03-23T12:29:24;96644.31;;;18.23;52.68
9281;BME280;4679;47.966;7.958;2023-03-23T12:31:35;96638.75;;;18.20;52.73
9281;BME280;4679;47.966;7.958;2023-03-23T12:33:48;96637.97;;;18.19;52.45
9281;BME280;4679;47.966;7.958;2023-03-23T12:36:03;96644.75;;;18.17;52.54
9281;BME280;4679;47.966;7.958;2023-03-23T12:38:22;96643.28;;;18.11;52.51
9281;BME280;4679;47.966;7.958;2023-03-23T12:40:45;96644.38;;;18.10;52.49
9281;BME280;4679;47.966;7.958;2023-03-23T12:42:54;96643.03;;;17.99;52.70
9281;BME280;4679;47.966;7.958;2023-03-23T12:45:05;96633.78;;;17.91;52.66
9281;BME280;4679;47.966;7.958;2023-03-23T12:47:21;96640.47;;;17.80;52.56
9281;BME280;4679;47.966;7.958;2023-03-23T12:49:32;96637.50;;;17.68;52.25
9281;BME280;4679;47.966;7.958;2023-03-23T12:51:40;96636.78;;;17.62;52.67
9281;BME280;4679;47.966;7.958;2023-03-23T12:53:50;96642.88;;;17.54;52.51
9281;BME280;4679;47.966;7.958;2023-03-23T12:56:08;96636.31;;;17.46;52.27
9281;BME280;4679;47.966;7.958;2023-03-23T12:58:16;96641.59;;;17.38;52.39
9281;BME280;4679;47.966;7.958;2023-03-23T13:00:22;96640.88;;;17.32;52.74
9281;BME280;4679;47.966;7.958;2023-03-23T13:02:29;96641.47;;;17.29;52.49
9281;BME280;4679;47.966;7.958;2023-03-23T13:04:37;96649.63;;;17.24;52.39
9281;BME280;4679;47.966;7.958;2023-03-23T13:06:42;96645.66;;;17.21;52.68
9281;BME280;4679;47.966;7.958;2023-03-23T13:08:48;96639.56;;;17.16;52.42
9281;BME280;4679;47.966;7.958;2023-03-23T13:10:53;96625.38;;;17.15;52.24
9281;BME280;4679;47.966;7.958;2023-03-23T13:12:56;96653.50;;;17.18;52.53
9281;BME280;4679;47.966;7.958;2023-03-23T13:15:04;96627.25;;;17.15;52.05
9281;BME280;4679;47.966;7.958;2023-03-23T13:17:20;96632.25;;;17.08;52.34
9281;BME280;4679;47.966;7.958;2023-03-23T13:19:29;96624.56;;;17.01;51.93
9281;BME280;4679;47.966;7.958;2023-03-23T13:21:38;96646.91;;;16.97;52.26
9281;BME280;4679;47.966;7.958;2023-03-23T13:23:46;96638.47;;;16.90;52.38
9281;BME280;4679;47.966;7.958;2023-03-23T13:25:52;96643.31;;;16.87;52.51
9281;BME280;4679;47.966;7.958;2023-03-23T13:27:57;96636.44;;;16.81;52.63
9281;BME280;4679;47.966;7.958;2023-03-23T13:30:01;96638.66;;;16.79;52.15
9281;BME280;4679;47.966;7.958;2023-03-23T13:32:09;96640.53;;;16.79;52.46
9281;BME280;4679;47.966;7.958;2023-03-23T13:34:16;96632.00;;;16.77;52.76
9281;BME280;4679;47.966;7.958;2023-03-23T13:36:28;96635.47;;;16.77;52.71
9281;BME280;4679;47.966;7.958;2023-03-23T13:38:31;96632.78;;;16.77;52.42
9281;BME280;4679;47.966;7.958;2023-03-23T13:40:33;96635.19;;;16.79;52.62
9281;BME280;4679;47.966;7.958;2023-03-23T13:42:35;96632.56;;;16.74;52.87
9281;BME280;4679;47.966;7.958;2023-03-23T13:44:43;96630.19;;;16.72;52.34
9281;BME280;4679;47.966;7.958;2023-03-23T13:47:16;96639.81;;;16.73;52.83
9281;BME280;4679;47.966;7.958;2023-03-23T13:49:22;96629.03;;;16.78;53.00
9281;BME280;4679;47.966;7.958;2023-03-23T13:51:33;96628.13;;;16.83;52.67
9281;BME280;4679;47.966;7.958;2023-03-23T13:53:45;96622.75;;;16.83;52.63
9281;BME280;4679;47.966;7.958;2023-03-23T13:55:49;96622.06;;;16.77;52.89
9281;BME280;4679;47.966;7.958;2023-03-23T13:57:52;96618.78;;;16.80;52.64
9281;BME280;4679;47.966;7.958;2023-03-23T13:59:58;96615.72;;;16.87;52.53
9281;BME280;4679;47.966;7.958;2023-03-23T14:02:27;96614.84;;;16.92;52.87
9281;BME280;4679;47.966;7.958;2023-03-23T14:04:31;96611.06;;;16.93;52.86
9281;BME280;4679;47.966;7.958;2023-03-23T14:06:35;96607.09;;;16.90;52.90
9281;BME280;4679;47.966;7.958;2023-03-23T14:08:42;96611.44;;;16.86;52.86
9281;BME280;4679;47.966;7.958;2023-03-23T14:10:51;96611.53;;;16.81;53.07
9281;BME280;4679;47.966;7.958;2023-03-23T14:12:54;96608.06;;;16.80;52.68
9281;BME280;4679;47.966;7.958;2023-03-23T14:14:57;96591.81;;;16.77;52.83
9281;BME280;4679;47.966;7.958;2023-03-23T14:17:12;96598.34;;;16.71;52.56
9281;BME280;4679;47.966;7.958;2023-03-23T14:19:18;96594.16;;;16.65;52.50
9281;BME280;4679;47.966;7.958;2023-03-23T14:21:31;96602.53;;;16.58;52.81
9281;BME280;4679;47.966;7.958;2023-03-23T14:23:34;96590.81;;;16.54;52.80
9281;BME280;4679;47.966;7.958;2023-03-23T14:25:35;96597.25;;;16.53;52.56
9281;BME280;4679;47.966;7.958;2023-03-23T14:27:39;96598.84;;;16.54;53.16
9281;BME280;4679;47.966;7.958;2023-03-23T14:29:42;96590.03;;;16.53;53.11
9281;BME280;4679;47.966;7.958;2023-03-23T14:31:44;96589.72;;;16.55;52.95
9281;BME280;4679;47.966;7.958;2023-03-23T14:33:46;96587.84;;;16.56;52.47
9281;BME280;4679;47.966;7.958;2023-03-23T14:35:49;96587.06;;;16.55;52.37
9281;BME280;4679;47.966;7.958;2023-03-23T14:37:51;96581.19;;;16.53;52.77
9281;BME280;4679;47.966;7.958;2023-03-23T14:39:54;96590.03;;;16.53;52.50
9281;BME280;4679;47.966;7.958;2023-03-23T14:42:02;96579.03;;;16.55;52.66
9281;BME280;4679;47.966;7.958;2023-03-23T14:44:07;96580.09;;;16.54;52.65
9281;BME280;4679;47.966;7.958;2023-03-23T14:46:10;96571.78;;;16.56;52.62
9281;BME280;4679;47.966;7.958;2023-03-23T14:48:15;96569.09;;;16.56;52.53
9281;BME280;4679;47.966;7.958;2023-03-23T14:50:28;96563.75;;;16.56;52.33
9281;BME280;4679;47.966;7.958;2023-03-23T14:52:35;96557.31;;;16.57;52.74
9281;BME280;4679;47.966;7.958;2023-03-23T14:54:38;96559.69;;;16.58;51.78
9281;BME280;4679;47.966;7.958;2023-03-23T14:56:42;96557.81;;;16.59;51.99
9281;BME280;4679;47.966;7.958;2023-03-23T14:58:44;96553.53;;;16.58;51.84
9281;BME280;4679;47.966;7.958;2023-03-23T15:00:53;96556.22;;;16.58;52.01
9281;BME280;4679;47.966;7.958;2023-03-23T15:02:58;96555.41;;;16.57;52.20
9281;BME280;4679;47.966;7.958;2023-03-23T15:05:05;96555.72;;;16.56;52.64
9281;BME280;4679;47.966;7.958;2023-03-23T15:07:12;96554.41;;;16.53;52.39
9281;BME280;4679;47.966;7.958;2023-03-23T15:09:17;96553.13;;;16.50;52.34
9281;BME280;4679;47.966;7.958;2023-03-23T15:11:25;96553.44;;;16.49;52.55
9281;BME280;4679;47.966;7.958;2023-03-23T15:13:28;96554.53;;;16.48;52.19
9281;BME280;4679;47.966;7.958;2023-03-23T15:15:32;96545.47;;;16.44;52.54
9281;BME280;4679;47.966;7.958;2023-03-23T15:17:37;96552.72;;;16.43;52.71
9281;BME280;4679;47.966;7.958;2023-03-23T15:19:41;96558.88;;;16.44;52.30
9281;BME280;4679;47.966;7.958;2023-03-23T15:21:50;96556.97;;;16.44;53.05
9281;BME280;4679;47.966;7.958;2023-03-23T15:23:53;96550.84;;;16.44;53.21
9281;BME280;4679;47.966;7.958;2023-03-23T15:25:56;96555.69;;;16.42;52.67
9281;BME280;4679;47.966;7.958;2023-03-23T15:28:09;96550.91;;;16.39;52.97
9281;BME280;4679;47.966;7.958;2023-03-23T15:30:28;96552.50;;;16.40;53.03
9281;BME280;4679;47.966;7.958;2023-03-23T15:32:39;96545.56;;;16.39;53.07
9281;BME280;4679;47.966;7.958;2023-03-23T15:34:44;96552.41;;;16.31;53.23
9281;BME280;4679;47.966;7.958;2023-03-23T15:36:51;96547.41;;;16.25;52.96
9281;BME280;4679;47.966;7.958;2023-03-23T15:38:53;96546.41;;;16.21;53.43
9281;BME280;4679;47.966;7.958;2023-03-23T15:40:57;96553.63;;;16.20;52.93
9281;BME280;4679;47.966;7.958;2023-03-23T15:43:06;96548.78;;;16.22;53.22
9281;BME280;4679;47.966;7.958;2023-03-23T15:45:26;96540.06;;;16.16;53.20
9281;BME280;4679;47.966;7.958;2023-03-23T15:47:36;96545.41;;;16.16;53.26
9281;BME280;4679;47.966;7.958;2023-03-23T15:49:40;96547.00;;;16.17;53.17
9281;BME280;4679;47.966;7.958;2023-03-23T15:51:42;96543.72;;;16.21;53.75
9281;BME280;4679;47.966;7.958;2023-03-23T15:53:44;96544.22;;;16.23;53.58
9281;BME280;4679;47.966;7.958;2023-03-23T15:55:45;96543.72;;;16.21;53.38
9281;BME280;4679;47.966;7.958;2023-03-23T15:57:48;96546.72;;;16.19;53.14
9281;BME280;4679;47.966;7.958;2023-03-23T15:59:50;96539.66;;;16.23;53.49
9281;BME280;4679;47.966;7.958;2023-03-23T16:01:51;96541.19;;;16.29;53.63
9281;BME280;4679;47.966;7.958;2023-03-23T16:04:03;96541.41;;;16.33;53.09
9281;BME280;4679;47.966;7.958;2023-03-23T16:06:10;96543.97;;;16.38;53.40
9281;BME280;4679;47.966;7.958;2023-03-23T16:08:12;96543.69;;;16.39;52.99
9281;BME280;4679;47.966;7.958;2023-03-23T16:10:17;96542.88;;;16.39;53.08
9281;BME280;4679;47.966;7.958;2023-03-23T16:12:19;96539.69;;;16.37;52.80
9281;BME280;4679;47.966;7.958;2023-03-23T16:14:21;96543.16;;;16.37;52.75
9281;BME280;4679;47.966;7.958;2023-03-23T16:16:24;96540.59;;;16.32;53.36
9281;BME280;4679;47.966;7.958;2023-03-23T16:18:27;96546.03;;;16.27;53.07
9281;BME280;4679;47.966;7.958;2023-03-23T16:20:29;96540.69;;;16.27;53.29
9281;BME280;4679;47.966;7.958;2023-03-23T16:22:33;96543.06;;;16.29;53.00
9281;BME280;4679;47.966;7.958;2023-03-23T16:24:35;96546.25;;;16.31;53.36
9281;BME280;4679;47.966;7.958;2023-03-23T16:26:37;96547.34;;;16.30;53.11
9281;BME280;4679;47.966;7.958;2023-03-23T16:28:40;96540.09;;;16.30;53.05
9281;BME280;4679;47.966;7.958;2023-03-23T16:30:43;96546.03;;;16.27;52.88
9281;BME280;4679;47.966;7.958;2023-03-23T16:32:45;96556.03;;;16.22;53.01
9281;BME280;4679;47.966;7.958;2023-03-23T16:34:47;96553.06;;;16.23;53.19
9281;BME280;4679;47.966;7.958;2023-03-23T16:36:48;96550.25;;;16.14;53.16
9281;BME280;4679;47.966;7.958;2023-03-23T16:38:51;96551.34;;;16.13;53.03
9281;BME280;4679;47.966;7.958;2023-03-23T16:40:53;96555.31;;;16.16;53.10
9281;BME280;4679;47.966;7.958;2023-03-23T16:42:55;96544.03;;;16.19;53.24
9281;BME280;4679;47.966;7.958;2023-03-23T16:44:57;96551.84;;;16.15;52.79
9281;BME280;4679;47.966;7.958;2023-03-23T16:46:58;96554.31;;;16.12;53.31
9281;BME280;4679;47.966;7.958;2023-03-23T16:49:00;96550.91;;;16.06;53.36
9281;BME280;4679;47.966;7.958;2023-03-23T16:51:02;96553.88;;;16.05;54.10
9281;BME280;4679;47.966;7.958;2023-03-23T16:53:05;96553.31;;;16.08;53.79
9281;BME280;4679;47.966;7.958;2023-03-23T16:55:10;96548.84;;;16.03;53.63
9281;BME280;4679;47.966;7.958;2023-03-23T16:57:12;96547.53;;;16.01;53.83
9281;BME280;4679;47.966;7.958;2023-03-23T16:59:14;96542.03;;;16.11;53.72
9281;BME280;4679;47.966;7.958;2023-03-23T17:01:16;96544.97;;;16.09;53.56
9281;BME280;4679;47.966;7.958;2023-03-23T17:03:19;96546.34;;;16.07;53.91
9281;BME280;4679;47.966;7.958;2023-03-23T17:05:23;96545.06;;;16.04;53.90
9281;BME280;4679;47.966;7.958;2023-03-23T17:07:26;96559.03;;;16.01;53.81
9281;BME280;4679;47.966;7.958;2023-03-23T17:09:28;96542.47;;;15.99;53.50
9281;BME280;4679;47.966;7.958;2023-03-23T17:11:31;96546.03;;;15.95;54.24
9281;BME280;4679;47.966;7.958;2023-03-23T17:13:32;96539.47;;;15.87;54.37
9281;BME280;4679;47.966;7.958;2023-03-23T17:15:35;96553.31;;;15.89;53.94
9281;BME280;4679;47.966;7.958;2023-03-23T17:17:37;96537.50;;;15.93;54.27
9281;BME280;4679;47.966;7.958;2023-03-23T17:19:39;96534.06;;;16.06;53.92
9281;BME280;4679;47.966;7.958;2023-03-23T17:21:41;96536.88;;;16.14;53.16
9281;BME280;4679;47.966;7.958;2023-03-23T17:23:42;96529.06;;;16.18;53.85
9281;BME280;4679;47.966;7.958;2023-03-23T17:25:45;96540.25;;;16.20;53.20
9281;BME280;4679;47.966;7.958;2023-03-23T17:27:49;96529.34;;;16.16;53.49
9281;BME280;4679;47.966;7.958;2023-03-23T17:29:51;96526.38;;;16.18;53.03
9281;BME280;4679;47.966;7.958;2023-03-23T17:31:53;96529.34;;;16.16;52.85
9281;BME280;4679;47.966;7.958;2023-03-23T17:33:54;96530.66;;;16.19;53.07
9281;BME280;4679;47.966;7.958;2023-03-23T17:35:57;96526.38;;;16.18;53.31
9281;BME280;4679;47.966;7.958;2023-03-23T17:37:58;96533.91;;;16.16;53.18
9281;BME280;4679;47.966;7.958;2023-03-23T17:40:01;96539.84;;;16.13;53.46
9281;BME280;4679;47.966;7.958;2023-03-23T17:42:04;96542.63;;;16.22;52.51
9281;BME280;4679;47.966;7.958;2023-03-23T17:44:07;96542.13;;;16.19;53.06
9281;BME280;4679;47.966;7.958;2023-03-23T17:46:09;96536.13;;;16.28;52.35
9281;BME280;4679;47.966;7.958;2023-03-23T17:48:11;96543.78;;;16.34;52.23
9281;BME280;4679;47.966;7.958;2023-03-23T17:50:13;96545.44;;;16.30;52.52
9281;BME280;4679;47.966;7.958;2023-03-23T17:52:14;96541.03;;;16.21;52.24
9281;BME280;4679;47.966;7.958;2023-03-23T17:54:16;96543.53;;;16.17;52.44
9281;BME280;4679;47.966;7.958;2023-03-23T17:56:18;96547.59;;;16.14;52.72
9281;BME280;4679;47.966;7.958;2023-03-23T17:58:20;96544.97;;;16.09;52.92
9281;BME280;4679;47.966;7.958;2023-03-23T18:00:23;96548.53;;;16.05;52.28
9281;BME280;4679;47.966;7.958;2023-03-23T18:02:25;96549.94;;;16.02;52.67
9281;BME280;4679;47.966;7.958;2023-03-23T18:04:26;96553.09;;;16.04;52.95
9281;BME280;4679;47.966;7.958;2023-03-23T18:06:28;96556.06;;;16.03;52.41
9281;BME280;4679;47.966;7.958;2023-03-23T18:08:32;96546.06;;;16.08;52.14
9281;BME280;4679;47.966;7.958;2023-03-23T18:10:36;96540.72;;;16.08;52.02
9281;BME280;4679;47.966;7.958;2023-03-23T18:12:38;96545.56;;;16.06;51.96
9281;BME280;4679;47.966;7.958;2023-03-23T18:14:40;96542.19;;;16.01;52.49
9281;BME280;4679;47.966;7.958;2023-03-23T18:16:44;96540.16;;;15.93;52.35
9281;BME280;4679;47.966;7.958;2023-03-23T18:18:46;96540.56;;;15.86;52.45
9281;BME280;4679;47.966;7.958;2023-03-23T18:20:53;96540.69;;;15.76;52.92
9281;BME280;4679;47.966;7.958;2023-03-23T18:22:55;96534.63;;;15.70;52.66
9281;BME280;4679;47.966;7.958;2023-03-23T18:24:57;96532.03;;;15.65;52.84
9281;BME280;4679;47.966;7.958;2023-03-23T18:26:58;96529.41;;;15.60;53.49
9281;BME280;4679;47.966;7.958;2023-03-23T18:29:01;96530.06;;;15.52;53.52